createdAt,value
2022-10-01T00:01:26.682Z,7.20
2022-10-01T00:03:54.176Z,7.10
2022-10-01T00:06:22.441Z,7.00
2022-10-01T00:08:51.132Z,7.00
2022-10-01T00:11:22.118Z,7.00
2022-10-01T00:13:50.461Z,7.10
2022-10-01T00:16:20.456Z,7.00
2022-10-01T00:18:49.625Z,6.90
2022-10-01T00:21:22.569Z,6.90
2022-10-01T00:23:58.288Z,6.90
2022-10-01T00:26:28.139Z,6.80
2022-10-01T00:28:57.930Z,6.70
2022-10-01T00:31:26.239Z,6.70
2022-10-01T00:34:02.847Z,6.60
2022-10-01T00:36:32.023Z,6.50
2022-10-01T00:39:00.911Z,6.50
2022-10-01T00:41:30.647Z,6.60
2022-10-01T00:44:01.383Z,6.60
2022-10-01T00:46:44.978Z,6.70
2022-10-01T00:49:19.340Z,6.70
2022-10-01T00:51:53.086Z,6.70
2022-10-01T00:54:24.632Z,6.80
2022-10-01T00:56:55.981Z,6.70
2022-10-01T00:59:23.305Z,6.80
2022-10-01T01:01:51.663Z,6.80
2022-10-01T01:04:19.024Z,6.80
2022-10-01T01:06:58.785Z,6.70
2022-10-01T01:09:30.868Z,6.60
2022-10-01T01:12:07.145Z,6.40
2022-10-01T01:14:43.365Z,6.30
2022-10-01T01:17:21.392Z,6.30
2022-10-01T01:20:16.643Z,6.10
2022-10-01T01:22:55.122Z,6.10
2022-10-01T01:25:31.933Z,6.20
2022-10-01T01:28:17.944Z,6.30
2022-10-01T01:30:49.449Z,6.30
2022-10-01T01:33:21.052Z,6.30
2022-10-01T01:36:06.041Z,6.30
2022-10-01T01:38:42.990Z,6.20
2022-10-01T01:41:12.025Z,6.10
2022-10-01T01:43:44.282Z,6.00
2022-10-01T01:46:17.791Z,6.10
2022-10-01T01:48:50.291Z,6.00
2022-10-01T01:51:34.683Z,6.00
2022-10-01T01:54:02.429Z,6.10
2022-10-01T01:56:31.507Z,6.10
2022-10-01T01:59:01.283Z,6.00
2022-10-01T02:01:35.858Z,6.00
2022-10-01T02:04:16.492Z,5.90
2022-10-01T02:06:53.292Z,5.90
2022-10-01T02:09:29.644Z,5.90
2022-10-01T02:12:37.423Z,5.90
2022-10-01T02:15:17.575Z,5.90
2022-10-01T02:18:02.525Z,6.00
2022-10-01T02:20:52.773Z,6.10
2022-10-01T02:23:31.098Z,6.20
2022-10-01T02:26:07.569Z,6.30
2022-10-01T02:28:38.814Z,6.40
2022-10-01T02:31:06.552Z,6.40
2022-10-01T02:33:36.776Z,6.50
2022-10-01T02:36:08.214Z,6.60
2022-10-01T02:38:38.238Z,6.70
2022-10-01T02:41:09.668Z,6.90
2022-10-01T02:43:43.249Z,7.00
2022-10-01T02:46:22.155Z,7.10
2022-10-01T02:48:50.666Z,7.30
2022-10-01T02:51:40.061Z,7.30
2022-10-01T02:54:16.520Z,7.40
2022-10-01T02:57:02.709Z,7.50
2022-10-01T02:59:29.982Z,7.60
2022-10-01T03:01:57.508Z,7.60
2022-10-01T03:04:24.940Z,7.70
2022-10-01T03:06:52.282Z,7.70
2022-10-01T03:09:19.685Z,7.70
2022-10-01T03:11:47.628Z,7.80
2022-10-01T03:14:14.873Z,7.70
2022-10-01T03:16:42.146Z,7.70
2022-10-01T03:19:09.442Z,7.70
2022-10-01T03:21:36.942Z,7.70
2022-10-01T03:24:04.407Z,7.70
2022-10-01T03:26:31.768Z,7.80
2022-10-01T03:28:59.198Z,7.70
2022-10-01T03:31:26.554Z,7.70
2022-10-01T03:33:54.093Z,7.70
2022-10-01T03:36:21.423Z,7.60
2022-10-01T03:38:48.668Z,7.70
2022-10-01T03:41:16.036Z,7.60
2022-10-01T03:43:43.427Z,7.60
2022-10-01T03:46:11.806Z,7.60
2022-10-01T03:48:39.147Z,7.60
2022-10-01T03:51:06.860Z,7.70
2022-10-01T03:53:34.140Z,7.70
2022-10-01T03:56:02.090Z,7.70
2022-10-01T03:58:29.439Z,7.50
2022-10-01T04:00:57.321Z,7.60
2022-10-01T04:03:24.717Z,7.50
2022-10-01T04:05:52.099Z,7.60
2022-10-01T04:08:24.124Z,7.40
2022-10-01T04:10:51.793Z,7.40
2022-10-01T04:13:19.420Z,7.40
2022-10-01T04:18:17.569Z,7.30
2022-10-01T04:20:45.000Z,7.30
2022-10-01T04:23:12.312Z,7.30
2022-10-01T04:25:39.627Z,7.20
2022-10-01T04:28:10.642Z,7.20
2022-10-01T04:30:40.269Z,7.20
2022-10-01T04:33:09.945Z,7.20
2022-10-01T04:35:37.403Z,7.20
2022-10-01T04:38:08.088Z,7.10
2022-10-01T04:40:36.525Z,7.00
2022-10-01T04:43:05.272Z,7.00
2022-10-01T04:45:32.756Z,7.00
2022-10-01T04:48:00.087Z,6.90
2022-10-01T04:50:28.740Z,6.90
2022-10-01T04:52:56.549Z,6.90
2022-10-01T04:55:24.282Z,7.00
2022-10-01T04:57:51.790Z,7.00
2022-10-01T05:00:22.123Z,7.10
2022-10-01T05:02:50.933Z,7.10
2022-10-01T05:05:20.329Z,7.10
2022-10-01T05:07:48.346Z,7.10
2022-10-01T05:10:21.329Z,7.10
2022-10-01T05:12:49.866Z,7.10
2022-10-01T05:15:18.021Z,7.20
2022-10-01T05:18:45.789Z,7.20
2022-10-01T05:21:15.766Z,7.00
2022-10-01T05:23:43.113Z,7.10
2022-10-01T05:26:10.339Z,7.10
2022-10-01T05:28:38.690Z,7.20
2022-10-01T05:31:06.243Z,7.20
2022-10-01T05:33:34.724Z,7.30
2022-10-01T05:36:02.279Z,7.30
2022-10-01T05:38:29.516Z,7.30
2022-10-01T05:40:56.813Z,7.30
2022-10-01T05:43:27.262Z,7.50
2022-10-01T05:45:54.694Z,7.50
2022-10-01T05:48:22.114Z,7.60
2022-10-01T05:50:50.224Z,7.60
2022-10-01T05:53:17.497Z,7.60
2022-10-01T05:55:45.219Z,7.60
2022-10-01T05:58:14.643Z,7.70
2022-10-01T06:00:43.233Z,7.70
2022-10-01T06:03:15.559Z,7.70
2022-10-01T06:05:44.836Z,7.70
2022-10-01T06:08:12.453Z,7.70
2022-10-01T06:10:40.171Z,7.60
2022-10-01T06:13:08.027Z,7.50
2022-10-01T06:15:40.484Z,7.40
2022-10-01T06:18:09.568Z,7.50
2022-10-01T06:20:37.337Z,7.50
2022-10-01T06:23:07.546Z,7.50
2022-10-01T06:25:36.592Z,7.50
2022-10-01T06:28:06.122Z,7.50
2022-10-01T06:30:35.958Z,7.60
2022-10-01T06:33:05.576Z,7.70
2022-10-01T06:35:33.905Z,7.90
2022-10-01T06:38:04.173Z,8.20
2022-10-01T06:40:31.636Z,8.40
2022-10-01T06:42:59.379Z,8.50
2022-10-01T06:45:28.108Z,8.50
2022-10-01T06:48:02.880Z,8.80
2022-10-01T06:50:31.905Z,8.90
2022-10-01T06:52:59.906Z,9.10
2022-10-01T06:55:29.839Z,9.00
2022-10-01T06:58:12.790Z,9.10
2022-10-01T07:00:40.270Z,9.20
2022-10-01T07:03:11.238Z,9.10
2022-10-01T07:05:40.793Z,9.10
2022-10-01T07:08:08.506Z,9.20
2022-10-01T07:10:36.746Z,9.50
2022-10-01T07:13:22.067Z,9.50
2022-10-01T07:15:49.337Z,9.50
2022-10-01T07:18:17.196Z,9.40
2022-10-01T07:20:44.612Z,9.40
2022-10-01T07:23:13.841Z,9.40
2022-10-01T07:25:43.112Z,9.40
2022-10-01T07:28:18.287Z,9.70
2022-10-01T07:31:02.987Z,10.10
2022-10-01T07:33:30.485Z,10.00
2022-10-01T07:36:01.348Z,9.80
2022-10-01T07:38:28.954Z,9.80
2022-10-01T07:40:56.631Z,10.00
2022-10-01T07:43:23.973Z,10.40
2022-10-01T07:45:53.016Z,10.60
2022-10-01T07:48:20.670Z,10.90
2022-10-01T07:50:47.961Z,11.00
2022-10-01T07:53:15.382Z,11.00
2022-10-01T07:55:42.985Z,11.20
2022-10-01T07:58:12.120Z,11.20
2022-10-01T08:00:58.680Z,11.20
2022-10-01T08:03:26.248Z,11.30
2022-10-01T08:05:54.487Z,11.40
2022-10-01T08:08:21.844Z,11.40
2022-10-01T08:13:18.603Z,11.90
2022-10-01T08:15:50.760Z,11.80
2022-10-01T08:18:18.126Z,11.80
2022-10-01T08:20:45.564Z,11.90
2022-10-01T08:23:15.641Z,12.00
2022-10-01T08:25:44.273Z,12.00
2022-10-01T08:28:12.993Z,11.90
2022-10-01T08:30:42.409Z,11.80
2022-10-01T08:33:13.659Z,11.80
2022-10-01T08:35:41.905Z,11.80
2022-10-01T08:38:10.067Z,12.10
2022-10-01T08:40:47.726Z,12.20
2022-10-01T08:43:31.406Z,12.30
2022-10-01T08:46:22.972Z,12.50
2022-10-01T08:49:03.262Z,12.70
2022-10-01T08:51:52.249Z,12.90
2022-10-01T08:55:01.853Z,13.20
2022-10-01T08:57:39.974Z,13.60
2022-10-01T09:00:13.850Z,14.00
2022-10-01T09:02:43.806Z,14.30
2022-10-01T09:05:32.239Z,14.40
2022-10-01T09:08:19.398Z,14.50
2022-10-01T09:11:07.347Z,14.70
2022-10-01T09:13:57.810Z,15.60
2022-10-01T09:18:54.495Z,15.70
2022-10-01T09:21:48.244Z,15.70
2022-10-01T09:24:22.805Z,16.00
2022-10-01T09:26:50.143Z,16.00
2022-10-01T09:29:41.847Z,16.00
2022-10-01T09:32:15.937Z,16.00
2022-10-01T09:34:44.872Z,16.00
2022-10-01T09:37:28.721Z,16.00
2022-10-01T09:40:13.001Z,16.10
2022-10-01T09:42:40.321Z,15.90
2022-10-01T09:45:14.259Z,15.70
2022-10-01T09:47:44.462Z,15.70
2022-10-01T09:50:18.186Z,15.70
2022-10-01T09:52:49.161Z,15.50
2022-10-01T09:55:25.217Z,15.40
2022-10-01T09:58:02.292Z,15.40
2022-10-01T10:00:30.160Z,15.40
2022-10-01T10:02:57.847Z,15.30
2022-10-01T10:05:30.290Z,15.20
2022-10-01T10:08:10.937Z,15.20
2022-10-01T10:10:40.168Z,15.60
2022-10-01T10:13:14.119Z,15.80
2022-10-01T10:15:51.823Z,15.80
2022-10-01T10:18:34.776Z,16.00
2022-10-01T10:21:16.578Z,16.00
2022-10-01T10:23:52.795Z,15.90
2022-10-01T10:26:40.295Z,15.90
2022-10-01T10:29:24.505Z,16.10
2022-10-01T10:31:51.947Z,16.20
2022-10-01T10:34:25.380Z,16.20
2022-10-01T10:36:59.244Z,16.30
2022-10-01T10:39:31.621Z,16.30
2022-10-01T10:42:00.531Z,16.20
2022-10-01T10:44:35.315Z,16.10
2022-10-01T10:47:10.434Z,16.10
2022-10-01T10:50:04.837Z,16.10
2022-10-01T10:52:36.599Z,16.40
2022-10-01T10:55:30.368Z,16.70
2022-10-01T10:58:15.329Z,16.60
2022-10-01T11:00:50.308Z,16.60
2022-10-01T11:03:21.362Z,16.80
2022-10-01T11:05:57.330Z,17.00
2022-10-01T11:08:28.017Z,17.00
2022-10-01T11:11:13.798Z,17.30
2022-10-01T11:14:08.632Z,17.20
2022-10-01T11:17:06.749Z,17.10
2022-10-01T11:20:04.956Z,16.70
2022-10-01T11:22:44.240Z,16.40
2022-10-01T11:25:21.737Z,16.40
2022-10-01T11:28:14.979Z,16.40
2022-10-01T11:31:08.820Z,16.30
2022-10-01T11:33:45.211Z,16.20
2022-10-01T11:36:41.589Z,16.00
2022-10-01T11:39:16.949Z,16.00
2022-10-01T11:41:49.072Z,16.00
2022-10-01T11:44:22.313Z,15.80
2022-10-01T11:47:09.367Z,16.00
2022-10-01T11:49:58.140Z,16.10
2022-10-01T11:53:03.497Z,16.60
2022-10-01T11:55:55.050Z,16.70
2022-10-01T11:58:53.050Z,16.90
2022-10-01T12:01:26.017Z,17.00
2022-10-01T12:03:53.268Z,17.00
2022-10-01T12:06:54.607Z,16.70
2022-10-01T12:09:28.086Z,16.20
2022-10-01T12:12:02.944Z,16.00
2022-10-01T12:15:06.745Z,16.00
2022-10-01T12:17:49.350Z,15.60
2022-10-01T12:20:40.067Z,15.40
2022-10-01T12:23:13.918Z,15.50
2022-10-01T12:25:57.044Z,15.50
2022-10-01T12:28:36.580Z,15.70
2022-10-01T12:31:34.123Z,15.80
2022-10-01T12:34:30.384Z,15.90
2022-10-01T12:37:10.562Z,16.00
2022-10-01T12:39:55.548Z,15.90
2022-10-01T12:42:25.805Z,16.00
2022-10-01T12:45:36.817Z,16.10
2022-10-01T12:48:28.069Z,16.10
2022-10-01T12:51:35.738Z,16.10
2022-10-01T12:54:45.620Z,16.00
2022-10-01T12:57:33.291Z,16.00
2022-10-01T13:00:17.483Z,16.00
2022-10-01T13:03:08.476Z,16.00
2022-10-01T13:06:01.815Z,16.20
2022-10-01T13:08:29.022Z,16.30
2022-10-01T13:11:07.047Z,16.20
2022-10-01T13:13:34.909Z,16.00
2022-10-01T13:16:49.610Z,16.00
2022-10-01T13:19:19.381Z,16.20
2022-10-01T13:22:00.798Z,16.10
2022-10-01T13:24:50.591Z,16.10
2022-10-01T13:27:28.583Z,16.30
2022-10-01T13:30:03.998Z,16.10
2022-10-01T13:32:37.698Z,16.00
2022-10-01T13:35:35.284Z,16.00
2022-10-01T13:38:15.456Z,16.00
2022-10-01T13:40:42.997Z,16.00
2022-10-01T13:43:20.337Z,15.80
2022-10-01T13:45:49.923Z,15.80
2022-10-01T13:48:32.579Z,15.70
2022-10-01T13:51:11.897Z,15.60
2022-10-01T13:53:42.024Z,15.40
2022-10-01T13:56:14.817Z,15.40
2022-10-01T13:58:48.215Z,15.40
2022-10-01T14:01:23.629Z,15.40
2022-10-01T14:04:13.630Z,15.30
2022-10-01T14:06:50.406Z,15.30
2022-10-01T14:09:31.604Z,15.20
2022-10-01T14:12:27.884Z,15.10
2022-10-01T14:15:30.989Z,15.10
2022-10-01T14:18:01.540Z,15.10
2022-10-01T14:20:42.604Z,15.00
2022-10-01T14:23:16.063Z,15.00
2022-10-01T14:26:02.300Z,14.90
2022-10-01T14:29:07.105Z,15.00
2022-10-01T14:32:21.264Z,14.90
2022-10-01T14:35:05.450Z,14.90
2022-10-01T14:37:38.514Z,14.70
2022-10-01T14:40:22.579Z,14.70
2022-10-01T14:43:03.151Z,14.70
2022-10-01T14:45:30.513Z,14.70
2022-10-01T14:48:06.468Z,14.60
2022-10-01T14:50:37.537Z,14.60
2022-10-01T14:53:06.332Z,14.60
2022-10-01T14:55:35.897Z,14.50
2022-10-01T14:58:05.369Z,14.30
2022-10-01T15:00:33.569Z,14.30
2022-10-01T15:03:10.981Z,14.20
2022-10-01T15:05:38.527Z,14.00
2022-10-01T15:08:22.696Z,13.80
2022-10-01T15:10:59.463Z,13.00
2022-10-01T15:13:35.328Z,12.40
2022-10-01T15:16:03.235Z,12.30
2022-10-01T15:18:31.706Z,11.90
2022-10-01T15:21:06.595Z,11.60
2022-10-01T15:23:39.492Z,11.40
2022-10-01T15:26:11.614Z,11.30
2022-10-01T15:28:38.933Z,11.20
2022-10-01T15:31:07.996Z,11.00
2022-10-01T15:33:40.739Z,11.00
2022-10-01T15:36:18.008Z,11.00
2022-10-01T15:38:49.181Z,10.90
2022-10-01T15:41:32.046Z,10.80
2022-10-01T15:44:04.016Z,10.80
2022-10-01T15:46:35.564Z,10.70
2022-10-01T15:49:15.397Z,10.70
2022-10-01T15:52:17.798Z,10.70
2022-10-01T15:54:47.236Z,10.70
2022-10-01T15:57:23.621Z,10.70
2022-10-01T15:59:54.207Z,10.70
2022-10-01T16:02:25.882Z,10.70
2022-10-01T16:04:56.295Z,10.60
2022-10-01T16:07:29.379Z,10.60
2022-10-01T16:09:58.873Z,10.60
2022-10-01T16:12:29.580Z,10.60
2022-10-01T16:15:00.928Z,10.60
2022-10-01T16:17:38.903Z,10.50
2022-10-01T16:20:15.064Z,10.60
2022-10-01T16:22:43.637Z,10.50
2022-10-01T16:25:19.870Z,10.50
2022-10-01T16:27:48.667Z,10.50
2022-10-01T16:30:20.243Z,10.40
2022-10-01T16:32:48.141Z,10.40
2022-10-01T16:35:29.771Z,10.40
2022-10-01T16:37:58.348Z,10.30
2022-10-01T16:40:28.419Z,10.30
2022-10-01T16:42:57.111Z,10.10
2022-10-01T16:45:27.007Z,10.10
2022-10-01T16:47:56.974Z,10.10
2022-10-01T16:50:25.254Z,10.10
2022-10-01T16:52:54.221Z,10.10
2022-10-01T16:55:32.691Z,10.10
2022-10-01T16:58:02.298Z,10.00
2022-10-01T17:00:30.011Z,10.00
2022-10-01T17:02:58.083Z,10.00
2022-10-01T17:05:26.887Z,9.90
2022-10-01T17:07:55.260Z,9.90
2022-10-01T17:10:23.818Z,9.90
2022-10-01T17:12:51.431Z,9.90
2022-10-01T17:15:23.406Z,10.00
2022-10-01T17:17:50.727Z,10.00
2022-10-01T17:20:18.087Z,10.00
2022-10-01T17:22:45.396Z,10.00
2022-10-01T17:25:18.134Z,10.00
2022-10-01T17:27:46.302Z,10.00
2022-10-01T17:30:14.096Z,10.00
2022-10-01T17:32:43.086Z,10.00
2022-10-01T17:35:12.683Z,9.90
2022-10-01T17:37:41.192Z,9.90
2022-10-01T17:40:10.323Z,9.90
2022-10-01T17:42:38.031Z,9.90
2022-10-01T17:45:08.131Z,9.90
2022-10-01T17:47:36.051Z,9.90
2022-10-01T17:50:04.326Z,9.90
2022-10-01T17:52:32.695Z,9.90
2022-10-01T17:55:00.011Z,9.90
2022-10-01T17:57:27.221Z,9.90
2022-10-01T17:59:54.477Z,9.90
2022-10-01T18:02:40.958Z,10.00
2022-10-01T18:05:09.888Z,9.90
2022-10-01T18:07:37.479Z,9.90
2022-10-01T18:10:06.639Z,9.90
2022-10-01T18:12:34.293Z,9.80
2022-10-01T18:15:02.157Z,9.80
2022-10-01T18:17:32.148Z,9.80
2022-10-01T18:19:59.798Z,9.90
2022-10-01T18:22:27.940Z,9.80
2022-10-01T18:24:55.533Z,9.80
2022-10-01T18:27:22.874Z,9.80
2022-10-01T18:29:50.241Z,9.80
2022-10-01T18:32:20.051Z,9.80
2022-10-01T18:35:02.436Z,9.80
2022-10-01T18:37:45.901Z,9.80
2022-10-01T18:40:24.279Z,9.80
2022-10-01T18:43:16.706Z,9.80
2022-10-01T18:46:02.984Z,9.80
2022-10-01T18:48:54.301Z,9.90
2022-10-01T18:51:43.061Z,9.90
2022-10-01T18:54:42.079Z,9.90
2022-10-01T18:57:51.305Z,9.90
2022-10-01T19:00:25.744Z,9.90
2022-10-01T19:03:17.101Z,9.90
2022-10-01T19:06:04.259Z,9.90
2022-10-01T19:08:44.111Z,9.90
2022-10-01T19:11:35.675Z,9.90
2022-10-01T19:16:39.631Z,9.80
2022-10-01T19:19:25.961Z,9.80
2022-10-01T19:22:02.209Z,9.80
2022-10-01T19:24:41.124Z,9.70
2022-10-01T19:27:17.905Z,9.70
2022-10-01T19:30:06.770Z,9.70
2022-10-01T19:32:45.153Z,9.70
2022-10-01T19:35:26.462Z,9.70
2022-10-01T19:38:18.508Z,9.70
2022-10-01T19:40:56.131Z,9.70
2022-10-01T19:43:48.174Z,9.70
2022-10-01T19:46:21.309Z,9.70
2022-10-01T19:48:57.969Z,9.70
2022-10-01T19:51:39.343Z,9.70
2022-10-01T19:54:17.139Z,9.70
2022-10-01T19:56:48.065Z,9.70
2022-10-01T19:59:19.920Z,9.60
2022-10-01T20:02:02.659Z,9.60
2022-10-01T20:04:30.658Z,9.60
2022-10-01T20:07:14.082Z,9.60
2022-10-01T20:10:13.840Z,9.60
2022-10-01T20:12:57.220Z,9.60
2022-10-01T20:15:58.055Z,9.60
2022-10-01T20:18:49.774Z,9.60
2022-10-01T20:21:41.231Z,9.60
2022-10-01T20:24:29.045Z,9.60
2022-10-01T20:27:08.196Z,9.60
2022-10-01T20:29:52.759Z,9.60
2022-10-01T20:32:33.391Z,9.60
2022-10-01T20:35:01.764Z,9.60
2022-10-01T20:37:55.132Z,9.70
2022-10-01T20:40:25.844Z,9.70
2022-10-01T20:43:36.392Z,9.70
2022-10-01T20:46:24.266Z,9.70
2022-10-01T20:49:04.886Z,9.70
2022-10-01T20:51:40.488Z,9.70
2022-10-01T20:54:24.340Z,9.70
2022-10-01T20:57:06.791Z,9.70
2022-10-01T20:59:39.306Z,9.70
2022-10-01T21:02:29.436Z,9.70
2022-10-01T21:05:26.367Z,9.60
2022-10-01T21:08:02.357Z,9.60
2022-10-01T21:10:43.694Z,9.60
2022-10-01T21:13:31.642Z,9.60
2022-10-01T21:16:11.840Z,9.60
2022-10-01T21:18:48.261Z,9.50
2022-10-01T21:21:40.499Z,9.50
2022-10-01T21:24:44.918Z,9.50
2022-10-01T21:27:36.966Z,9.50
2022-10-01T21:30:21.810Z,9.50
2022-10-01T21:33:07.313Z,9.30
2022-10-01T21:35:52.914Z,9.30
2022-10-01T21:38:45.466Z,9.20
2022-10-01T21:41:54.053Z,9.10
2022-10-01T21:44:52.150Z,9.20
2022-10-01T21:47:48.677Z,9.20
2022-10-01T21:50:36.499Z,9.20
2022-10-01T21:53:25.479Z,9.20
2022-10-01T21:56:23.696Z,9.30
2022-10-01T21:59:07.717Z,9.20
2022-10-01T22:01:49.579Z,9.20
2022-10-01T22:04:19.428Z,9.20
2022-10-01T22:06:55.681Z,9.20
2022-10-01T22:09:36.938Z,9.20
2022-10-01T22:12:06.909Z,9.20
2022-10-01T22:14:34.350Z,9.20
2022-10-01T22:17:20.415Z,9.30
2022-10-01T22:19:51.590Z,9.30
2022-10-01T22:22:43.936Z,9.30
2022-10-01T22:25:32.358Z,9.30
2022-10-01T22:28:10.340Z,9.30
2022-10-01T22:30:40.727Z,9.30
2022-10-01T22:33:31.172Z,9.30
2022-10-01T22:36:10.627Z,9.40
2022-10-01T22:38:57.318Z,9.40
2022-10-01T22:41:36.368Z,9.40
2022-10-01T22:44:18.468Z,9.40
2022-10-01T22:47:18.092Z,9.40
2022-10-01T22:49:59.995Z,9.50
2022-10-01T22:52:33.676Z,9.50
2022-10-01T22:55:30.948Z,9.60
2022-10-01T22:58:04.964Z,9.60
2022-10-01T23:00:37.504Z,9.60
2022-10-01T23:03:18.093Z,9.70
2022-10-01T23:06:11.525Z,9.90
2022-10-01T23:08:39.486Z,10.00
2022-10-01T23:11:27.915Z,10.10
2022-10-01T23:14:19.766Z,10.10
2022-10-01T23:16:56.106Z,10.30
2022-10-01T23:19:38.467Z,10.30
2022-10-01T23:22:14.703Z,10.50
2022-10-01T23:25:02.444Z,10.50
2022-10-01T23:27:48.466Z,10.70
2022-10-01T23:30:20.491Z,10.70
2022-10-01T23:33:21.700Z,10.90
2022-10-01T23:36:21.746Z,10.90
2022-10-01T23:39:01.965Z,11.00
2022-10-01T23:41:48.221Z,11.00
2022-10-01T23:44:41.523Z,11.10
2022-10-01T23:47:18.204Z,11.10
2022-10-01T23:49:54.195Z,11.20
2022-10-01T23:52:51.479Z,11.20
2022-10-01T23:55:47.118Z,11.20
2022-10-01T23:58:15.899Z,11.30
